Time;durP1;ratioP1;P1;durP2;ratioP2;P2;SDS_P1;SDS_P2;PMS_P1;PMS_P2;Temp;Humidity;BMP_temperature;BMP_pressure;BME280_temperature;BME280_humidity;BME280_pressure;Samples;Min_cycle;Max_cycle;Signal;HPM_P1;HPM_P2
2022/02/21 00:00:25;;;;;;;3.30;1.10;;;;;;;9.28;79.10;99268.66;5021745;28;20417;-78
2022/02/21 00:02:52;;;;;;;5.68;0.82;;;;;;;9.25;79.51;99275.38;5020720;28;20815;-77
2022/02/21 00:05:19;;;;;;;4.18;1.17;;;;;;;9.23;79.66;99274.00;5059126;28;20413;-77
2022/02/21 00:07:45;;;;;;;3.78;1.10;;;;;;;9.21;80.57;99270.78;5038645;28;20471;-78
2022/02/21 00:10:11;;;;;;;6.72;1.33;;;;;;;9.10;81.47;99269.91;5021294;28;20839;-78
2022/02/21 00:12:40;;;;;;;3.83;1.45;;;;;;;9.03;82.34;99263.13;5020525;28;20430;-78
2022/02/21 00:15:06;;;;;;;3.63;0.75;;;;;;;9.01;82.74;99263.41;5027853;28;20424;-78
2022/02/21 00:17:32;;;;;;;2.50;0.60;;;;;;;8.98;83.05;99263.09;5021373;28;20409;-77
2022/02/21 00:19:57;;;;;;;5.30;1.00;;;;;;;8.96;82.83;99235.56;5021290;28;20808;-78
2022/02/21 00:22:23;;;;;;;3.42;0.60;;;;;;;8.98;83.30;99246.91;5023686;28;20464;-77
2022/02/21 00:24:48;;;;;;;4.80;1.00;;;;;;;8.95;84.08;99248.25;5046858;28;20759;-77
2022/02/21 00:27:13;;;;;;;3.07;1.10;;;;;;;8.94;83.98;99232.28;5029707;28;20485;-77
2022/02/21 00:29:39;;;;;;;2.67;1.10;;;;;;;8.90;84.26;99242.81;5020239;28;20401;-77
2022/02/21 00:32:05;;;;;;;4.33;0.90;;;;;;;8.94;83.57;99219.59;5021852;28;20399;-78
2022/02/21 00:34:33;;;;;;;4.10;1.00;;;;;;;8.93;83.57;99225.25;5016544;28;20419;-78
2022/02/21 00:36:58;;;;;;;5.30;1.30;;;;;;;8.92;83.73;99227.16;5025139;28;20426;-78
2022/02/21 00:39:23;;;;;;;7.47;1.00;;;;;;;8.92;84.14;99226.34;5026404;28;20397;-78
2022/02/21 00:41:49;;;;;;;6.63;1.30;;;;;;;8.90;84.55;99217.66;5025657;28;20427;-77
2022/02/21 00:44:14;;;;;;;5.43;1.40;;;;;;;8.86;85.23;99215.50;5024628;28;20498;-78
2022/02/21 00:46:39;;;;;;;3.70;1.20;;;;;;;8.88;84.67;99217.13;5037503;28;20416;-78
2022/02/21 00:49:06;;;;;;;7.17;1.40;;;;;;;8.86;84.57;99220.91;5023121;28;20791;-78
2022/02/21 00:51:32;;;;;;;6.18;1.50;;;;;;;8.83;84.63;99180.91;5025336;28;20433;-77
2022/02/21 00:53:57;;;;;;;5.28;1.50;;;;;;;8.85;85.13;99194.16;5029073;28;20406;-77
2022/02/21 00:56:22;;;;;;;6.23;1.40;;;;;;;8.86;84.36;99195.75;5027091;28;20419;-77
2022/02/21 00:58:48;;;;;;;5.00;1.30;;;;;;;8.87;84.66;99194.69;5013415;28;20401;-78
2022/02/21 01:01:13;;;;;;;5.93;2.20;;;;;;;8.87;84.51;99167.69;5016339;28;20868;-78
2022/02/21 01:03:39;;;;;;;6.90;1.47;;;;;;;8.90;84.34;99147.44;5016561;28;20474;-77
2022/02/21 01:06:04;;;;;;;5.70;2.07;;;;;;;8.93;83.82;99147.72;5019840;28;20403;-78
2022/02/21 01:08:30;;;;;;;4.38;1.30;;;;;;;8.94;83.81;99137.72;5026739;28;20399;-78
2022/02/21 01:10:55;;;;;;;5.50;1.40;;;;;;;8.98;82.58;99126.13;5040284;28;20522;-78
2022/02/21 01:13:20;;;;;;;5.10;1.37;;;;;;;9.03;82.50;99117.19;5030142;28;20755;-78
2022/02/21 01:15:46;;;;;;;5.23;1.53;;;;;;;9.09;82.07;99118.84;5044580;28;20786;-78
2022/02/21 01:18:11;;;;;;;5.55;1.50;;;;;;;9.12;81.52;99088.59;5027586;28;20878;-78
2022/02/21 01:20:36;;;;;;;6.23;1.50;;;;;;;9.15;81.10;99113.19;5020988;28;20408;-78
2022/02/21 01:23:01;;;;;;;5.57;1.57;;;;;;;9.16;81.55;99097.75;5028433;28;20410;-79
2022/02/21 01:25:27;;;;;;;6.53;1.63;;;;;;;9.05;82.83;99106.94;5020824;28;20416;-78
2022/02/21 01:27:53;;;;;;;5.53;1.05;;;;;;;9.07;82.58;99104.78;5042914;28;20415;-78
2022/02/21 01:30:18;;;;;;;5.10;1.58;;;;;;;9.07;82.18;99059.66;5022181;28;20535;-78
2022/02/21 01:32:44;;;;;;;2.90;0.90;;;;;;;9.04;82.33;99064.78;5026124;28;20414;-78
2022/02/21 01:35:09;;;;;;;8.13;2.33;;;;;;;9.11;81.39;99076.16;5026456;28;20496;-77
2022/02/21 01:37:35;;;;;;;4.65;1.23;;;;;;;9.14;80.66;99062.91;5022281;28;20404;-78
2022/02/21 01:40:00;;;;;;;3.90;0.90;;;;;;;9.23;79.75;99047.78;5053145;28;20896;-79
2022/02/21 01:42:26;;;;;;;4.73;1.20;;;;;;;9.25;79.78;99021.28;5016903;28;20408;-78
2022/02/21 01:44:51;;;;;;;2.83;1.30;;;;;;;9.30;78.21;99032.09;5015123;28;20559;-77
2022/02/21 01:47:20;;;;;;;4.05;0.98;;;;;;;9.40;77.97;99023.16;5049275;28;20419;-77
2022/02/21 01:49:46;;;;;;;6.97;1.85;;;;;;;9.41;78.32;99019.38;5020798;28;20410;-77
2022/02/21 01:52:12;;;;;;;7.35;1.73;;;;;;;9.37;79.09;99027.22;5017413;28;20426;-78
2022/02/21 01:54:38;;;;;;;4.28;1.60;;;;;;;9.34;79.53;99000.75;5025782;28;20906;-78
2022/02/21 01:57:05;;;;;;;5.23;1.33;;;;;;;9.27;80.05;99005.59;5029686;28;20485;-78
2022/02/21 01:59:35;;;;;;;2.53;1.10;;;;;;;9.31;79.87;99005.88;5028256;28;20483;-79
2022/02/21 02:02:01;;;;;;;3.25;1.02;;;;;;;9.33;79.43;99001.00;5021480;28;20434;-79
2022/02/21 02:04:26;;;;;;;5.25;1.20;;;;;;;9.34;79.23;98972.88;5029167;28;20403;-78
2022/02/21 02:06:52;;;;;;;4.70;1.40;;;;;;;9.42;77.94;98983.13;5028124;28;20445;-77
2022/02/21 02:09:18;;;;;;;3.60;1.17;;;;;;;9.46;77.96;98980.69;5026947;28;20411;-78
2022/02/21 02:11:44;;;;;;;3.63;1.13;;;;;;;9.46;77.94;98964.47;5059030;28;20499;-78
2022/02/21 02:14:32;;;;;;;3.40;1.08;;;;;;;9.49;77.40;98956.63;5027080;28;20415;-79
2022/02/21 02:17:09;;;;;;;5.35;0.90;;;;;;;9.53;77.39;98952.28;5026453;28;20415;-78
2022/02/21 02:19:35;;;;;;;3.25;1.02;;;;;;;9.50;77.63;98943.91;5022537;28;20405;-78
2022/02/21 02:22:18;;;;;;;4.75;1.75;;;;;;;9.44;79.09;98951.25;5025213;28;20414;-77
2022/02/21 02:24:46;;;;;;;6.45;2.08;;;;;;;9.39;78.65;98927.72;5025993;28;20889;-78
2022/02/21 02:27:12;;;;;;;3.55;1.30;;;;;;;9.32;79.99;98932.59;5023192;28;20493;-79
2022/02/21 02:29:39;;;;;;;4.15;0.90;;;;;;;9.23;82.18;98920.72;5023982;28;20397;-78
2022/02/21 02:32:06;;;;;;;4.75;1.05;;;;;;;9.11;83.06;98925.63;5026883;28;20399;-77
2022/02/21 02:34:31;;;;;;;3.90;0.88;;;;;;;8.99;84.83;98911.56;5020578;28;20397;-78
2022/02/21 02:36:56;;;;;;;4.80;1.00;;;;;;;8.83;85.63;98885.66;5022745;28;20469;-78
2022/02/21 02:39:26;;;;;;;2.35;0.93;;;;;;;8.82;86.03;98902.97;5024043;28;20545;-77
2022/02/21 02:41:52;;;;;;;3.83;1.05;;;;;;;8.71;87.23;98906.72;5033227;28;20897;-77
2022/02/21 02:44:18;;;;;;;6.10;1.55;;;;;;;8.61;88.38;98914.81;5025539;28;20403;-77
2022/02/21 02:46:43;;;;;;;7.05;1.50;;;;;;;8.57;88.64;98938.84;5031169;28;20422;-77
2022/02/21 02:49:08;;;;;;;4.75;1.20;;;;;;;8.53;89.18;98961.28;5063515;28;20395;-77
2022/02/21 02:51:34;;;;;;;4.37;1.30;;;;;;;8.54;89.70;99022.28;5026629;28;20495;-77
2022/02/21 02:53:59;;;;;;;6.88;1.30;;;;;;;8.55;89.98;99105.72;5027406;28;20406;-77
2022/02/21 02:56:25;;;;;;;10.73;1.80;;;;;;;8.57;89.85;99168.38;5025415;28;20925;-77
2022/02/21 02:58:50;;;;;;;7.47;1.80;;;;;;;7.66;85.73;99175.84;5029358;28;20409;-76
2022/02/21 03:01:15;;;;;;;5.13;0.80;;;;;;;7.09;87.48;99175.56;5032569;28;20399;-77
2022/02/21 03:03:41;;;;;;;1.90;0.60;;;;;;;7.02;88.17;99193.78;5026069;28;20491;-76
2022/02/21 03:06:06;;;;;;;1.53;0.40;;;;;;;6.94;88.70;99220.38;5027802;28;20439;-77
2022/02/21 03:08:31;;;;;;;0.47;0.30;;;;;;;6.81;87.96;99223.44;5026350;28;20415;-77
2022/02/21 03:10:56;;;;;;;0.90;0.40;;;;;;;6.79;87.25;99256.00;5059114;28;20467;-77
2022/02/21 03:13:22;;;;;;;0.87;0.20;;;;;;;6.68;86.99;99248.84;5027111;28;20403;-77
2022/02/21 03:15:47;;;;;;;1.53;0.43;;;;;;;6.64;86.55;99269.25;5026518;28;20422;-77
2022/02/21 03:18:12;;;;;;;2.73;0.50;;;;;;;6.71;86.35;99267.19;5016353;28;20416;-77
2022/02/21 03:20:37;;;;;;;3.43;1.03;;;;;;;6.42;85.05;99276.47;5022236;28;20409;-77
2022/02/21 03:23:03;;;;;;;6.07;0.90;;;;;;;6.31;84.80;99267.44;5013303;28;20400;-77
2022/02/21 03:25:28;;;;;;;4.27;1.10;;;;;;;6.35;83.30;99257.81;5022135;28;20473;-77
2022/02/21 03:27:53;;;;;;;5.93;1.07;;;;;;;6.24;82.79;99262.22;5024851;28;20491;-77
2022/02/21 03:30:19;;;;;;;3.63;1.07;;;;;;;6.22;81.94;99279.66;5030041;28;20438;-76
2022/02/21 03:32:44;;;;;;;5.73;1.20;;;;;;;6.19;81.07;99258.66;5021639;28;20933;-77
2022/02/21 03:35:10;;;;;;;5.13;1.60;;;;;;;6.08;80.77;99228.06;5026153;28;20435;-77
2022/02/21 03:37:36;;;;;;;5.88;1.30;;;;;;;6.00;79.50;99214.22;5020933;28;20407;-77
2022/02/21 03:40:04;;;;;;;5.40;1.83;;;;;;;6.06;76.45;99189.03;5027797;28;20408;-77
2022/02/21 03:42:30;;;;;;;4.32;1.35;;;;;;;6.12;76.72;99198.81;5028073;28;20469;-77
2022/02/21 03:44:55;;;;;;;5.70;1.90;;;;;;;6.03;76.30;99184.94;5028147;28;20395;-77
2022/02/21 03:47:20;;;;;;;4.93;1.50;;;;;;;6.08;76.50;99209.25;5026442;28;20431;-77
2022/02/21 03:49:46;;;;;;;3.92;1.10;;;;;;;6.14;74.83;99231.66;5016875;28;20546;-77
2022/02/21 03:52:11;;;;;;;7.73;1.80;;;;;;;6.14;75.25;99245.09;5024599;28;20409;-77
2022/02/21 03:54:36;;;;;;;5.70;1.13;;;;;;;6.12;75.95;99256.13;5021373;28;20421;-77
2022/02/21 03:57:02;;;;;;;3.87;1.40;;;;;;;6.28;74.63;99256.34;5024401;28;20432;-77
2022/02/21 03:59:27;;;;;;;4.70;1.27;;;;;;;6.33;74.90;99235.69;5022736;28;20415;-78
2022/02/21 04:01:52;;;;;;;5.23;0.97;;;;;;;6.32;75.44;99244.84;5036607;28;20447;-77
2022/02/21 04:04:17;;;;;;;5.53;1.57;;;;;;;6.28;75.51;99269.78;5014553;28;20748;-77
2022/02/21 04:06:43;;;;;;;10.07;2.13;;;;;;;6.30;75.30;99246.13;5032030;28;20407;-77
2022/02/21 04:09:08;;;;;;;3.73;1.10;;;;;;;6.41;75.20;99242.53;5018961;28;20475;-77
2022/02/21 04:11:33;;;;;;;6.00;1.30;;;;;;;6.43;74.90;99260.06;5029735;28;20435;-77
2022/02/21 04:13:59;;;;;;;7.73;1.80;;;;;;;6.36;75.78;99274.75;5031116;28;20439;-78
2022/02/21 04:16:24;;;;;;;7.83;2.03;;;;;;;6.43;75.49;99270.00;5029163;28;20418;-77
2022/02/21 04:18:49;;;;;;;8.37;1.80;;;;;;;6.29;76.45;99292.97;5025445;28;20413;-77
2022/02/21 04:21:15;;;;;;;9.57;1.75;;;;;;;6.27;76.87;99295.88;5027309;28;20835;-77
2022/02/21 04:23:40;;;;;;;7.33;2.00;;;;;;;6.32;77.20;99287.09;5026776;28;20415;-77
2022/02/21 04:26:05;;;;;;;13.73;2.40;;;;;;;6.39;76.48;99280.44;5027838;28;20754;-77
2022/02/21 04:28:31;;;;;;;6.30;1.87;;;;;;;6.40;76.63;99262.44;5028851;28;20495;-78
2022/02/21 04:30:56;;;;;;;11.83;2.33;;;;;;;6.48;75.56;99267.41;5026482;28;20756;-77
2022/02/21 04:33:21;;;;;;;7.80;2.17;;;;;;;6.58;75.18;99276.44;5039469;28;20507;-77
2022/02/21 04:35:46;;;;;;;5.20;2.17;;;;;;;6.54;75.84;99278.00;5025950;28;20418;-77
2022/02/21 04:38:13;;;;;;;8.73;2.23;;;;;;;6.44;76.76;99299.38;5025740;28;20882;-77
2022/02/21 04:40:38;;;;;;;5.80;1.52;;;;;;;6.47;77.26;99303.44;5026616;28;20415;-77
2022/02/21 04:43:03;;;;;;;8.60;2.07;;;;;;;6.51;76.96;99328.81;5036858;28;20404;-77
2022/02/21 04:45:29;;;;;;;8.13;2.57;;;;;;;6.55;76.19;99354.19;5012132;28;20428;-78
2022/02/21 04:47:54;;;;;;;13.90;2.70;;;;;;;6.54;75.73;99344.47;5024403;28;20406;-78
2022/02/21 04:50:20;;;;;;;8.30;2.30;;;;;;;6.48;76.08;99334.69;5023881;28;20803;-77
2022/02/21 04:52:45;;;;;;;13.90;3.37;;;;;;;6.49;75.68;99336.31;5021232;28;20464;-78
2022/02/21 04:55:12;;;;;;;12.57;2.80;;;;;;;6.56;74.15;99336.97;5030434;28;20457;-77
2022/02/21 04:57:38;;;;;;;10.48;2.20;;;;;;;6.56;75.22;99345.84;5024094;28;20401;-77
2022/02/21 05:00:06;;;;;;;10.80;2.75;;;;;;;6.52;74.06;99360.06;5029212;28;20498;-78
2022/02/21 05:02:31;;;;;;;10.70;2.40;;;;;;;6.51;74.99;99367.31;5023612;28;20416;-77
2022/02/21 05:04:57;;;;;;;8.83;2.13;;;;;;;6.46;75.96;99390.63;5023756;28;20652;-77
2022/02/21 05:07:22;;;;;;;7.33;2.40;;;;;;;6.38;76.94;99375.72;5021611;28;20407;-78
2022/02/21 05:09:47;;;;;;;10.97;2.70;;;;;;;6.51;76.23;99391.53;5026361;28;20408;-78
2022/02/21 05:12:12;;;;;;;10.83;2.80;;;;;;;6.50;76.22;99392.59;5023405;28;20760;-77
2022/02/21 05:14:38;;;;;;;12.83;2.33;;;;;;;6.52;75.39;99398.53;5025478;28;20423;-78
2022/02/21 05:17:05;;;;;;;10.73;2.63;;;;;;;6.51;75.31;99388.03;5016000;28;20501;-78
2022/02/21 05:19:30;;;;;;;13.52;3.15;;;;;;;6.48;75.61;99396.59;5051153;28;20403;-77
2022/02/21 05:21:55;;;;;;;12.27;2.70;;;;;;;6.49;74.87;99407.09;5029056;28;20458;-77
2022/02/21 05:24:21;;;;;;;13.63;3.23;;;;;;;6.51;73.29;99412.25;5009469;28;20406;-77
2022/02/21 05:26:46;;;;;;;12.17;2.70;;;;;;;6.51;72.85;99418.47;5024015;28;20520;-78
2022/02/21 05:29:11;;;;;;;13.80;3.07;;;;;;;6.56;72.78;99404.25;5024008;28;20395;-77
2022/02/21 05:31:36;;;;;;;15.03;2.80;;;;;;;6.48;73.37;99397.41;5016969;28;20562;-77
2022/02/21 05:34:02;;;;;;;14.90;2.50;;;;;;;6.53;73.70;99389.41;5049557;28;20418;-78
2022/02/21 05:36:27;;;;;;;11.87;2.80;;;;;;;6.49;72.93;99360.53;5030233;28;20501;-78
2022/02/21 05:38:52;;;;;;;10.63;3.73;;;;;;;6.44;72.95;99358.59;5015159;28;20413;-77
2022/02/21 05:41:18;;;;;;;11.20;2.60;;;;;;;6.43;73.06;99362.31;5055671;28;20881;-78
2022/02/21 05:43:43;;;;;;;12.95;2.75;;;;;;;6.39;72.18;99353.09;5027247;28;20427;-77
2022/02/21 05:46:08;;;;;;;9.73;2.47;;;;;;;6.41;72.32;99342.94;5020550;28;20646;-78
2022/02/21 05:48:33;;;;;;;14.98;3.00;;;;;;;6.39;71.48;99339.66;5014891;28;20879;-78
2022/02/21 05:50:59;;;;;;;13.87;3.20;;;;;;;6.32;70.13;99343.59;5029792;28;20400;-78
2022/02/21 05:53:24;;;;;;;11.27;2.70;;;;;;;6.24;70.67;99350.19;5055025;28;20498;-78
2022/02/21 05:55:50;;;;;;;11.77;3.20;;;;;;;6.18;69.27;99354.66;5023903;28;20482;-77
2022/02/21 05:58:15;;;;;;;16.40;3.80;;;;;;;6.14;69.44;99358.88;5026248;28;20401;-77
2022/02/21 06:00:42;;;;;;;15.43;3.20;;;;;;;6.11;68.20;99369.31;5028095;28;20415;-78
2022/02/21 06:03:08;;;;;;;16.70;3.90;;;;;;;6.09;68.38;99384.91;5025659;28;20421;-77
2022/02/21 06:05:33;;;;;;;16.57;3.10;;;;;;;6.03;68.84;99397.41;5022500;28;20835;-77
2022/02/21 06:07:58;;;;;;;18.83;3.87;;;;;;;6.01;68.67;99396.84;5028112;28;20486;-77
2022/02/21 06:10:24;;;;;;;16.60;3.47;;;;;;;5.96;68.73;99404.00;5026491;28;20430;-78
2022/02/21 06:12:49;;;;;;;18.17;3.33;;;;;;;5.93;68.90;99426.00;5027319;28;20459;-78
2022/02/21 06:15:15;;;;;;;16.43;4.23;;;;;;;5.90;68.62;99416.53;5016411;28;20823;-77
2022/02/21 06:17:40;;;;;;;15.37;3.00;;;;;;;5.84;68.28;99427.38;5029806;28;20490;-77
2022/02/21 06:20:06;;;;;;;18.13;4.50;;;;;;;5.82;67.63;99430.34;5033429;28;20442;-77
2022/02/21 06:22:31;;;;;;;17.38;3.08;;;;;;;5.78;67.29;99439.94;5027075;28;20425;-77
2022/02/21 06:24:56;;;;;;;18.17;3.17;;;;;;;5.69;67.78;99450.25;5044662;28;20427;-77
2022/02/21 06:27:21;;;;;;;15.90;3.77;;;;;;;5.66;67.53;99449.91;5028623;28;20408;-77
2022/02/21 06:29:48;;;;;;;16.37;3.20;;;;;;;5.65;66.07;99462.53;5021172;28;20924;-77
2022/02/21 06:32:13;;;;;;;14.63;3.10;;;;;;;5.67;66.52;99455.03;5025643;28;20432;-78
2022/02/21 06:34:38;;;;;;;13.00;3.30;;;;;;;5.70;66.63;99459.09;5028437;28;20449;-77
2022/02/21 06:37:04;;;;;;;18.07;4.80;;;;;;;5.65;66.76;99462.53;5025441;28;20510;-78
2022/02/21 06:39:29;;;;;;;22.83;4.13;;;;;;;5.65;66.63;99459.84;5029593;28;20474;-78
2022/02/21 06:41:54;;;;;;;15.60;3.47;;;;;;;5.61;66.96;99461.34;5024631;28;20405;-78
2022/02/21 06:44:20;;;;;;;20.77;4.75;;;;;;;5.57;66.62;99457.50;5026219;28;20905;-77
2022/02/21 06:46:45;;;;;;;16.13;3.93;;;;;;;5.53;66.94;99450.94;5015584;28;20502;-77
2022/02/21 06:49:11;;;;;;;18.83;4.53;;;;;;;5.57;66.51;99449.44;5017309;28;20987;-81
2022/02/21 06:51:37;;;;;;;18.15;4.03;;;;;;;5.58;66.54;99451.06;5015034;28;20776;-78
2022/02/21 06:54:07;;;;;;;18.90;4.73;;;;;;;5.56;66.77;99453.19;5023934;28;20409;-80
2022/02/21 06:56:34;;;;;;;22.38;3.33;;;;;;;5.52;65.90;99437.78;5025466;28;20813;-77
2022/02/21 06:59:00;;;;;;;19.48;4.45;;;;;;;5.52;66.88;99453.91;5024924;28;20419;-79
2022/02/21 07:01:25;;;;;;;14.85;4.50;;;;;;;5.48;66.81;99442.81;5021648;28;20512;-78
2022/02/21 07:03:51;;;;;;;21.30;4.18;;;;;;;5.52;66.84;99451.22;5021550;28;20395;-79
2022/02/21 07:06:16;;;;;;;19.75;4.38;;;;;;;5.56;67.57;99457.75;5023889;28;20460;-80
2022/02/21 07:08:42;;;;;;;15.75;3.55;;;;;;;5.52;67.13;99465.47;5021043;28;20497;-77
2022/02/21 07:11:11;;;;;;;14.23;4.10;;;;;;;5.54;67.26;99462.53;5021760;28;20451;-77
2022/02/21 07:13:37;;;;;;;17.80;3.35;;;;;;;5.52;67.17;99465.47;5027937;28;20456;-78
2022/02/21 07:16:03;;;;;;;16.15;4.15;;;;;;;5.56;67.18;99476.56;5021272;28;20427;-79
2022/02/21 07:18:28;;;;;;;15.77;4.78;;;;;;;5.65;66.64;99477.81;5027304;28;20396;-78
2022/02/21 07:20:54;;;;;;;19.73;4.37;;;;;;;5.70;66.92;99478.75;5019633;28;20426;-79
2022/02/21 07:23:19;;;;;;;18.92;5.07;;;;;;;5.72;66.66;99489.28;5055419;28;20434;-77
2022/02/21 07:25:44;;;;;;;15.45;4.25;;;;;;;5.81;66.83;99495.91;5020836;28;20412;-79
2022/02/21 07:28:10;;;;;;;22.70;5.10;;;;;;;5.90;66.65;99491.81;5021519;28;20764;-78
2022/02/21 07:30:35;;;;;;;17.87;4.27;;;;;;;5.91;66.33;99511.47;5045189;28;20420;-78
2022/02/21 07:33:01;;;;;;;18.27;4.33;;;;;;;5.97;66.06;99500.56;5025549;28;20890;-77
2022/02/21 07:35:26;;;;;;;13.20;3.07;;;;;;;6.02;66.01;99498.00;5017046;28;20438;-77
2022/02/21 07:37:52;;;;;;;17.03;3.70;;;;;;;5.97;66.38;99516.69;5031811;28;20414;-77
2022/02/21 07:40:18;;;;;;;15.80;3.60;;;;;;;5.98;65.91;99506.78;5021445;28;20426;-77
2022/02/21 07:42:50;;;;;;;17.40;3.72;;;;;;;5.95;66.01;99523.38;5027441;28;20491;-78
2022/02/21 07:45:19;;;;;;;14.15;2.97;;;;;;;5.88;66.16;99536.97;5027560;28;20404;-77
2022/02/21 07:47:50;;;;;;;16.92;3.35;;;;;;;6.00;66.17;99529.66;5022784;28;20414;-78
2022/02/21 07:50:16;;;;;;;14.80;3.53;;;;;;;5.98;66.30;99537.19;5015316;28;20452;-77
2022/02/21 07:52:42;;;;;;;15.98;3.33;;;;;;;5.98;66.67;99533.66;5022462;28;20435;-77
2022/02/21 07:55:07;;;;;;;13.38;2.78;;;;;;;6.09;66.63;99544.38;5025793;28;20418;-77
2022/02/21 07:57:33;;;;;;;13.93;3.05;;;;;;;6.16;65.51;99550.44;5060234;28;20395;-77
2022/02/21 07:59:58;;;;;;;14.15;3.50;;;;;;;6.19;66.10;99552.66;5017089;28;20784;-78
2022/02/21 08:02:25;;;;;;;17.10;3.77;;;;;;;6.22;66.21;99567.53;5024334;28;20510;-77
2022/02/21 08:04:50;;;;;;;15.15;3.00;;;;;;;6.41;66.27;99560.09;5024440;28;20414;-77
2022/02/21 08:07:15;;;;;;;15.70;3.30;;;;;;;6.53;65.74;99558.97;5022866;28;20403;-77
2022/02/21 08:09:41;;;;;;;16.80;3.60;;;;;;;6.52;65.71;99581.56;5018917;28;20399;-77
2022/02/21 08:12:08;;;;;;;15.88;3.75;;;;;;;6.22;66.50;99562.94;5029169;28;20805;-77
2022/02/21 08:14:34;;;;;;;14.43;3.40;;;;;;;6.19;66.43;99554.56;5024761;28;20521;-78
2022/02/21 08:17:00;;;;;;;21.67;4.50;;;;;;;6.09;66.98;99546.28;5019719;28;20443;-78
2022/02/21 08:19:25;;;;;;;17.13;3.70;;;;;;;6.11;67.03;99550.34;5027421;28;20397;-77
2022/02/21 08:21:52;;;;;;;19.33;4.10;;;;;;;6.07;67.00;99543.00;5023601;28;20438;-76
2022/02/21 08:24:18;;;;;;;16.85;4.20;;;;;;;6.07;66.67;99548.38;5021683;28;20447;-76
2022/02/21 08:26:44;;;;;;;15.93;3.33;;;;;;;6.07;66.93;99554.56;5022929;28;20415;-76
2022/02/21 08:29:09;;;;;;;19.83;5.38;;;;;;;6.03;66.85;99549.88;5023411;28;20440;-76
2022/02/21 08:31:34;;;;;;;17.98;4.00;;;;;;;6.12;66.71;99575.38;5055525;28;20802;-76
2022/02/21 08:34:00;;;;;;;17.40;4.23;;;;;;;6.19;65.22;99570.69;5025170;28;20407;-76
2022/02/21 08:36:26;;;;;;;13.50;3.70;;;;;;;6.33;64.80;99558.59;5025845;28;20419;-77
2022/02/21 08:38:51;;;;;;;16.60;3.10;;;;;;;6.45;64.87;99566.63;5055857;28;20450;-76
2022/02/21 08:41:17;;;;;;;12.60;3.17;;;;;;;6.51;64.19;99582.66;5023717;28;20407;-77
2022/02/21 08:43:42;;;;;;;13.50;3.17;;;;;;;6.60;64.25;99577.69;5029138;28;20759;-76
2022/02/21 08:46:08;;;;;;;15.20;3.00;;;;;;;6.63;64.34;99569.94;5028399;28;20410;-77
2022/02/21 08:48:33;;;;;;;14.97;3.53;;;;;;;6.62;64.31;99578.25;5024922;28;20400;-77
2022/02/21 08:50:58;;;;;;;12.95;3.30;;;;;;;6.61;64.57;99553.22;5028023;28;20939;-77
2022/02/21 08:53:23;;;;;;;12.47;2.67;;;;;;;6.55;64.03;99578.38;5027787;28;20402;-76
2022/02/21 08:55:49;;;;;;;9.27;2.17;;;;;;;6.57;64.56;99562.00;5026707;28;20408;-75
2022/02/21 08:58:14;;;;;;;10.77;2.77;;;;;;;6.62;64.19;99597.09;5018792;28;20763;-75
2022/02/21 09:00:41;;;;;;;6.67;2.20;;;;;;;6.50;65.16;99618.69;5023932;28;20782;-74
2022/02/21 09:03:07;;;;;;;5.90;1.40;;;;;;;6.48;65.80;99639.66;5024744;28;20397;-77
2022/02/21 09:05:33;;;;;;;4.57;1.53;;;;;;;6.48;67.10;99644.22;5024374;28;20409;-75
2022/02/21 09:07:58;;;;;;;6.43;1.42;;;;;;;6.46;69.08;99647.13;5022359;28;20520;-75
2022/02/21 09:10:23;;;;;;;8.33;2.20;;;;;;;6.36;70.00;99629.94;5022396;28;20514;-77
2022/02/21 09:12:49;;;;;;;7.27;2.17;;;;;;;6.29;70.83;99631.97;5030466;28;20475;-77
2022/02/21 09:15:14;;;;;;;7.50;1.83;;;;;;;6.24;71.27;99628.09;5016067;28;20417;-77
2022/02/21 09:17:39;;;;;;;4.93;2.20;;;;;;;6.21;71.42;99630.44;5014277;28;20415;-75
2022/02/21 09:20:05;;;;;;;10.27;2.77;;;;;;;6.30;71.97;99633.59;5026792;28;20829;-77
2022/02/21 09:22:30;;;;;;;10.30;2.40;;;;;;;7.74;68.24;99620.34;5021718;28;20446;-77
2022/02/21 09:24:56;;;;;;;9.53;2.50;;;;;;;8.06;65.74;99620.56;5026632;28;20422;-77
2022/02/21 09:27:21;;;;;;;10.90;2.55;;;;;;;7.74;65.95;99625.72;5051474;28;20403;-77
2022/02/21 09:29:46;;;;;;;11.47;3.20;;;;;;;7.43;67.15;99626.31;5037943;28;20413;-77
2022/02/21 09:32:12;;;;;;;10.05;2.72;;;;;;;7.16;68.56;99631.53;5022317;28;20428;-77
2022/02/21 09:34:37;;;;;;;16.53;5.17;;;;;;;7.07;69.13;99629.47;5018006;28;20412;-77
2022/02/21 09:37:02;;;;;;;16.17;5.17;;;;;;;7.35;68.16;99637.50;5059394;28;20419;-77
2022/02/21 09:39:28;;;;;;;14.93;4.03;;;;;;;7.30;68.01;99626.63;5025437;28;20989;-77
2022/02/21 09:41:55;;;;;;;21.20;4.13;;;;;;;7.06;67.76;99625.13;5029964;28;20417;-77
2022/02/21 09:44:20;;;;;;;15.00;3.97;;;;;;;7.15;67.62;99618.28;5027568;28;20882;-78
2022/02/21 09:46:48;;;;;;;17.20;4.00;;;;;;;6.93;67.63;99634.31;5032702;28;20406;-77
2022/02/21 09:49:15;;;;;;;14.13;3.00;;;;;;;6.79;67.34;99638.34;5024275;28;20397;-77
2022/02/21 09:51:40;;;;;;;14.90;4.80;;;;;;;6.73;67.74;99674.31;5028168;28;20400;-78
2022/02/21 09:54:06;;;;;;;14.77;3.70;;;;;;;6.60;69.74;99677.28;5022354;28;20729;-77
2022/02/21 09:56:33;;;;;;;11.83;3.27;;;;;;;6.24;72.65;99675.72;5024340;28;20501;-78
2022/02/21 09:58:58;;;;;;;11.85;3.03;;;;;;;6.08;74.72;99677.25;5023619;28;20875;-77
2022/02/21 10:01:31;;;;;;;12.13;3.23;;;;;;;5.92;76.29;99683.34;5019762;28;20408;-77
2022/02/21 10:03:57;;;;;;;15.82;3.72;;;;;;;6.00;76.20;99677.59;5016636;28;20408;-77
2022/02/21 10:06:29;;;;;;;14.43;3.55;;;;;;;6.11;75.53;99660.66;5044106;28;20459;-77
2022/02/21 10:09:07;;;;;;;10.70;2.30;;;;;;;6.18;75.93;99663.22;5030591;28;20460;-77
2022/02/21 10:11:34;;;;;;;16.58;3.47;;;;;;;6.32;75.21;99663.78;5026148;28;20398;-77
2022/02/21 10:14:02;;;;;;;17.05;3.50;;;;;;;6.33;75.19;99660.00;5029963;28;20392;-76
2022/02/21 10:16:51;;;;;;;11.13;2.75;;;;;;;6.21;75.21;99660.03;5023066;28;20527;-77
2022/02/21 10:19:27;;;;;;;11.90;2.70;;;;;;;6.40;74.65;99664.22;5021494;28;20409;-77
2022/02/21 10:22:01;;;;;;;8.90;2.65;;;;;;;6.66;74.30;99660.19;5026350;28;20469;-77
2022/02/21 10:24:48;;;;;;;12.32;3.25;;;;;;;8.01;68.25;99668.22;5026788;28;20406;-77
2022/02/21 10:27:24;;;;;;;15.95;3.28;;;;;;;7.41;69.58;99660.78;5025208;28;20416;-78
2022/02/21 10:29:52;;;;;;;13.80;2.80;;;;;;;7.38;70.21;99663.97;5020456;28;20453;-79
2022/02/21 10:32:23;;;;;;;15.48;3.70;;;;;;;7.24;70.89;99668.03;5024133;28;20422;-77
2022/02/21 10:34:49;;;;;;;12.77;3.53;;;;;;;7.10;70.88;99656.75;5023742;28;20585;-77
2022/02/21 10:37:23;;;;;;;11.20;3.10;;;;;;;7.22;69.89;99652.09;5015364;28;20468;-77
2022/02/21 10:40:02;;;;;;;10.93;3.20;;;;;;;7.32;68.94;99648.75;5063137;28;20490;-78
2022/02/21 10:42:27;;;;;;;6.53;2.35;;;;;;;7.42;67.50;99646.25;5026635;28;20476;-77
2022/02/21 10:44:52;;;;;;;13.73;3.40;;;;;;;8.33;64.85;99650.38;5024768;28;20495;-78
2022/02/21 10:47:20;;;;;;;7.00;2.30;;;;;;;8.27;62.39;99638.63;5030115;28;20411;-78
2022/02/21 10:49:50;;;;;;;13.35;2.88;;;;;;;8.11;63.16;99635.97;5023178;28;20405;-77
2022/02/21 10:52:24;;;;;;;11.37;2.53;;;;;;;7.99;62.26;99663.06;5049064;28;20490;-77
2022/02/21 10:54:50;;;;;;;8.38;1.90;;;;;;;7.65;63.68;99656.06;5026130;28;20408;-77
2022/02/21 10:57:19;;;;;;;8.52;2.45;;;;;;;7.61;64.23;99644.94;5014634;28;20425;-78
2022/02/21 10:59:46;;;;;;;9.63;1.95;;;;;;;7.73;62.77;99636.78;5021883;28;20418;-77
2022/02/21 11:02:15;;;;;;;13.07;3.20;;;;;;;7.58;62.69;99655.41;5018696;28;20439;-77
2022/02/21 11:04:41;;;;;;;8.60;2.13;;;;;;;7.37;61.00;99648.03;5022484;28;20892;-77
2022/02/21 11:07:07;;;;;;;11.80;2.10;;;;;;;7.31;61.93;99644.44;5023231;28;20506;-77
2022/02/21 11:09:34;;;;;;;10.70;2.20;;;;;;;7.41;62.47;99631.13;5018001;28;20870;-77
2022/02/21 11:12:02;;;;;;;10.85;2.60;;;;;;;7.40;61.79;99621.44;5055580;28;20410;-78
2022/02/21 11:14:29;;;;;;;7.93;2.30;;;;;;;7.31;62.92;99626.38;5026069;28;20563;-77
2022/02/21 11:16:57;;;;;;;11.05;2.45;;;;;;;7.17;63.41;99635.03;5031206;28;20512;-77
2022/02/21 11:19:23;;;;;;;8.75;2.30;;;;;;;7.20;61.63;99626.47;5029659;28;20400;-77
2022/02/21 11:21:49;;;;;;;13.73;3.40;;;;;;;7.19;62.93;99636.41;5022183;28;20406;-76
2022/02/21 11:24:18;;;;;;;6.32;1.65;;;;;;;7.10;62.68;99619.03;5023657;28;20413;-77
2022/02/21 11:27:27;;;;;;;12.02;2.85;;;;;;;7.19;61.56;99620.25;5028488;28;20920;-76
2022/02/21 11:30:10;;;;;;;11.57;2.63;;;;;;;7.24;62.03;99606.84;5062493;28;20411;-76
2022/02/21 11:32:36;;;;;;;10.27;2.55;;;;;;;7.27;61.74;99602.88;5017992;28;20776;-77